Current Conditions
Overcast
Conditions



Pressure
1016.92 (hPa) - 30.03 (inHG)
Visibility

8.0 (km) - 5.0 (miles)
   Temperature
-2  °C
28°F
-3  °C
Dewpoint
93  %
 Humidity
   Wind Speed
13  km/h
7  kts
8  mph
3.6  m/s
   Wind Direction
 320°
North West
   Airport Data
LRIA
Location Ia┼či Airport 13 km (8mi)
Metar :LRIA 280700Z 32007KT 8000 OVC010 M02/M03 Q1017
Sat 28th January 07:00 am
   Raw Metar Info
Raw METAR is the most common format in the world for the transmission of observational weather data. It is highly standardized through the International Civil Aviation Organization (ICAO), which allows it to be understood throughout most of the world.
   API Info
Data Provided by
https://www.checkwx.com/weather/
   © Info
CSS/SVG/PHP scripts were developed by weather34.com for use in the weather34 template © 2015-2023

Guide Info provided by Metar-Wikipedia